sensor_id;sensor_type;location;lat;lon;timestamp;P1;durP1;ratioP1;P2;durP2;ratioP2
11439;SDS011;5776;51.814;4.510;2023-04-25T00:01:39;11.13;;;2.83;;
11439;SDS011;5776;51.814;4.510;2023-04-25T00:04:05;10.93;;;3.10;;
11439;SDS011;5776;51.814;4.510;2023-04-25T00:06:32;14.03;;;3.43;;
11439;SDS011;5776;51.814;4.510;2023-04-25T00:09:01;14.50;;;3.00;;
11439;SDS011;5776;51.814;4.510;2023-04-25T00:11:29;17.93;;;4.50;;
11439;SDS011;5776;51.814;4.510;2023-04-25T00:13:56;16.43;;;4.03;;
11439;SDS011;5776;51.814;4.510;2023-04-25T00:16:22;18.97;;;4.20;;
11439;SDS011;5776;51.814;4.510;2023-04-25T00:18:49;15.07;;;3.63;;
11439;SDS011;5776;51.814;4.510;2023-04-25T00:21:19;20.53;;;3.93;;
11439;SDS011;5776;51.814;4.510;2023-04-25T00:23:46;10.87;;;3.33;;
11439;SDS011;5776;51.814;4.510;2023-04-25T00:26:12;14.23;;;3.00;;
11439;SDS011;5776;51.814;4.510;2023-04-25T00:28:38;17.77;;;3.97;;
11439;SDS011;5776;51.814;4.510;2023-04-25T00:31:05;14.43;;;3.47;;
11439;SDS011;5776;51.814;4.510;2023-04-25T00:33:31;15.07;;;4.03;;
11439;SDS011;5776;51.814;4.510;2023-04-25T00:35:57;14.33;;;4.07;;
11439;SDS011;5776;51.814;4.510;2023-04-25T00:38:23;14.67;;;3.43;;
11439;SDS011;5776;51.814;4.510;2023-04-25T00:40:49;11.60;;;3.23;;
11439;SDS011;5776;51.814;4.510;2023-04-25T00:43:15;13.77;;;3.37;;
11439;SDS011;5776;51.814;4.510;2023-04-25T00:45:43;13.03;;;3.40;;
11439;SDS011;5776;51.814;4.510;2023-04-25T00:48:11;16.77;;;3.63;;
11439;SDS011;5776;51.814;4.510;2023-04-25T00:50:39;19.70;;;3.30;;
11439;SDS011;5776;51.814;4.510;2023-04-25T00:53:06;15.87;;;3.50;;
11439;SDS011;5776;51.814;4.510;2023-04-25T00:55:33;14.00;;;3.47;;
11439;SDS011;5776;51.814;4.510;2023-04-25T00:58:01;15.37;;;4.73;;
11439;SDS011;5776;51.814;4.510;2023-04-25T01:00:27;11.37;;;3.77;;
11439;SDS011;5776;51.814;4.510;2023-04-25T01:02:54;12.60;;;3.33;;
11439;SDS011;5776;51.814;4.510;2023-04-25T01:05:19;10.60;;;3.13;;
11439;SDS011;5776;51.814;4.510;2023-04-25T01:07:45;12.87;;;3.20;;
11439;SDS011;5776;51.814;4.510;2023-04-25T01:10:12;13.40;;;3.20;;
11439;SDS011;5776;51.814;4.510;2023-04-25T01:12:38;12.40;;;3.80;;
11439;SDS011;5776;51.814;4.510;2023-04-25T01:15:05;11.70;;;3.40;;
11439;SDS011;5776;51.814;4.510;2023-04-25T01:17:32;11.90;;;3.33;;
11439;SDS011;5776;51.814;4.510;2023-04-25T01:20:02;9.10;;;3.27;;
11439;SDS011;5776;51.814;4.510;2023-04-25T01:22:32;13.90;;;3.43;;
11439;SDS011;5776;51.814;4.510;2023-04-25T01:24:59;13.63;;;3.10;;
11439;SDS011;5776;51.814;4.510;2023-04-25T01:27:25;15.67;;;3.33;;
11439;SDS011;5776;51.814;4.510;2023-04-25T01:29:52;13.97;;;3.00;;
11439;SDS011;5776;51.814;4.510;2023-04-25T01:32:20;10.77;;;3.27;;
11439;SDS011;5776;51.814;4.510;2023-04-25T01:34:48;16.30;;;3.07;;
11439;SDS011;5776;51.814;4.510;2023-04-25T01:37:14;10.60;;;3.57;;
11439;SDS011;5776;51.814;4.510;2023-04-25T01:39:40;17.97;;;3.57;;
11439;SDS011;5776;51.814;4.510;2023-04-25T01:42:06;11.27;;;2.90;;
11439;SDS011;5776;51.814;4.510;2023-04-25T01:44:32;11.50;;;2.90;;
11439;SDS011;5776;51.814;4.510;2023-04-25T01:46:58;14.13;;;3.57;;
11439;SDS011;5776;51.814;4.510;2023-04-25T01:49:24;13.10;;;2.60;;
11439;SDS011;5776;51.814;4.510;2023-04-25T01:51:50;19.13;;;2.97;;
11439;SDS011;5776;51.814;4.510;2023-04-25T01:54:16;11.50;;;3.27;;
11439;SDS011;5776;51.814;4.510;2023-04-25T01:56:49;16.73;;;3.23;;
11439;SDS011;5776;51.814;4.510;2023-04-25T01:59:15;17.23;;;3.33;;
11439;SDS011;5776;51.814;4.510;2023-04-25T02:01:41;11.97;;;2.93;;
11439;SDS011;5776;51.814;4.510;2023-04-25T02:04:07;8.70;;;2.37;;
11439;SDS011;5776;51.814;4.510;2023-04-25T02:06:33;15.80;;;3.23;;
11439;SDS011;5776;51.814;4.510;2023-04-25T02:08:59;10.10;;;3.10;;
11439;SDS011;5776;51.814;4.510;2023-04-25T02:11:25;12.90;;;3.20;;
11439;SDS011;5776;51.814;4.510;2023-04-25T02:13:51;11.17;;;3.20;;
11439;SDS011;5776;51.814;4.510;2023-04-25T02:16:16;11.50;;;3.03;;
11439;SDS011;5776;51.814;4.510;2023-04-25T02:18:48;16.07;;;3.57;;
11439;SDS011;5776;51.814;4.510;2023-04-25T02:21:14;13.07;;;2.80;;
11439;SDS011;5776;51.814;4.510;2023-04-25T02:23:40;7.87;;;2.33;;
11439;SDS011;5776;51.814;4.510;2023-04-25T02:26:06;10.60;;;3.10;;
11439;SDS011;5776;51.814;4.510;2023-04-25T02:28:32;13.53;;;2.70;;
11439;SDS011;5776;51.814;4.510;2023-04-25T02:30:58;14.33;;;3.47;;
11439;SDS011;5776;51.814;4.510;2023-04-25T02:33:24;11.63;;;3.33;;
11439;SDS011;5776;51.814;4.510;2023-04-25T02:35:50;10.30;;;2.77;;
11439;SDS011;5776;51.814;4.510;2023-04-25T02:38:16;12.47;;;2.93;;
11439;SDS011;5776;51.814;4.510;2023-04-25T02:40:41;14.00;;;3.47;;
11439;SDS011;5776;51.814;4.510;2023-04-25T02:43:07;11.87;;;2.50;;
11439;SDS011;5776;51.814;4.510;2023-04-25T02:45:33;16.27;;;3.93;;
11439;SDS011;5776;51.814;4.510;2023-04-25T02:48:01;10.73;;;2.67;;
11439;SDS011;5776;51.814;4.510;2023-04-25T02:50:27;14.30;;;2.90;;
11439;SDS011;5776;51.814;4.510;2023-04-25T02:52:53;13.80;;;2.77;;
11439;SDS011;5776;51.814;4.510;2023-04-25T02:55:19;10.80;;;2.80;;
11439;SDS011;5776;51.814;4.510;2023-04-25T02:57:44;11.00;;;3.00;;
11439;SDS011;5776;51.814;4.510;2023-04-25T03:00:10;10.23;;;2.60;;
11439;SDS011;5776;51.814;4.510;2023-04-25T03:02:37;11.87;;;3.07;;
11439;SDS011;5776;51.814;4.510;2023-04-25T03:05:03;8.90;;;2.33;;
11439;SDS011;5776;51.814;4.510;2023-04-25T03:07:29;7.70;;;2.33;;
11439;SDS011;5776;51.814;4.510;2023-04-25T03:09:55;11.67;;;2.87;;
11439;SDS011;5776;51.814;4.510;2023-04-25T03:12:22;14.40;;;2.20;;
11439;SDS011;5776;51.814;4.510;2023-04-25T03:14:48;13.20;;;2.57;;
11439;SDS011;5776;51.814;4.510;2023-04-25T03:17:14;6.97;;;1.63;;
11439;SDS011;5776;51.814;4.510;2023-04-25T03:19:39;6.43;;;2.43;;
11439;SDS011;5776;51.814;4.510;2023-04-25T03:22:05;6.67;;;1.83;;
11439;SDS011;5776;51.814;4.510;2023-04-25T03:24:31;7.60;;;1.77;;
11439;SDS011;5776;51.814;4.510;2023-04-25T03:26:57;5.47;;;1.87;;
11439;SDS011;5776;51.814;4.510;2023-04-25T03:29:23;8.33;;;2.00;;
11439;SDS011;5776;51.814;4.510;2023-04-25T03:31:51;7.83;;;1.63;;
11439;SDS011;5776;51.814;4.510;2023-04-25T03:34:17;4.83;;;1.63;;
11439;SDS011;5776;51.814;4.510;2023-04-25T03:36:43;8.40;;;2.00;;
11439;SDS011;5776;51.814;4.510;2023-04-25T03:39:09;8.33;;;2.27;;
11439;SDS011;5776;51.814;4.510;2023-04-25T03:41:34;6.30;;;1.93;;
11439;SDS011;5776;51.814;4.510;2023-04-25T03:44:00;5.60;;;1.80;;
11439;SDS011;5776;51.814;4.510;2023-04-25T03:46:27;7.47;;;1.90;;
11439;SDS011;5776;51.814;4.510;2023-04-25T03:48:54;9.30;;;2.00;;
11439;SDS011;5776;51.814;4.510;2023-04-25T03:51:20;5.90;;;1.70;;
11439;SDS011;5776;51.814;4.510;2023-04-25T03:53:46;3.40;;;1.53;;
11439;SDS011;5776;51.814;4.510;2023-04-25T03:56:12;9.40;;;1.80;;
11439;SDS011;5776;51.814;4.510;2023-04-25T03:58:37;5.97;;;1.67;;
11439;SDS011;5776;51.814;4.510;2023-04-25T04:01:03;7.63;;;1.93;;
11439;SDS011;5776;51.814;4.510;2023-04-25T04:03:35;7.70;;;1.90;;
11439;SDS011;5776;51.814;4.510;2023-04-25T04:06:02;9.97;;;3.33;;
11439;SDS011;5776;51.814;4.510;2023-04-25T04:08:29;10.90;;;4.57;;
11439;SDS011;5776;51.814;4.510;2023-04-25T04:10:56;11.23;;;3.87;;
11439;SDS011;5776;51.814;4.510;2023-04-25T04:13:25;9.57;;;3.20;;
11439;SDS011;5776;51.814;4.510;2023-04-25T04:15:51;6.70;;;2.47;;
11439;SDS011;5776;51.814;4.510;2023-04-25T04:18:17;7.07;;;2.77;;
11439;SDS011;5776;51.814;4.510;2023-04-25T04:20:43;6.47;;;3.30;;
11439;SDS011;5776;51.814;4.510;2023-04-25T04:23:09;6.90;;;3.13;;
11439;SDS011;5776;51.814;4.510;2023-04-25T04:25:35;14.00;;;3.30;;
11439;SDS011;5776;51.814;4.510;2023-04-25T04:28:01;4.90;;;1.83;;
11439;SDS011;5776;51.814;4.510;2023-04-25T04:30:27;5.97;;;1.93;;
11439;SDS011;5776;51.814;4.510;2023-04-25T04:32:56;8.17;;;1.80;;
11439;SDS011;5776;51.814;4.510;2023-04-25T04:35:23;6.53;;;1.47;;
11439;SDS011;5776;51.814;4.510;2023-04-25T04:37:49;6.93;;;1.63;;
11439;SDS011;5776;51.814;4.510;2023-04-25T04:40:16;4.40;;;1.30;;
11439;SDS011;5776;51.814;4.510;2023-04-25T04:42:43;4.43;;;1.10;;
11439;SDS011;5776;51.814;4.510;2023-04-25T04:45:11;9.13;;;1.73;;
11439;SDS011;5776;51.814;4.510;2023-04-25T04:47:38;3.93;;;1.30;;
11439;SDS011;5776;51.814;4.510;2023-04-25T04:50:08;2.90;;;1.27;;
11439;SDS011;5776;51.814;4.510;2023-04-25T04:52:35;3.97;;;1.27;;
11439;SDS011;5776;51.814;4.510;2023-04-25T04:55:02;5.00;;;1.50;;
11439;SDS011;5776;51.814;4.510;2023-04-25T04:57:29;5.00;;;1.20;;
11439;SDS011;5776;51.814;4.510;2023-04-25T04:59:55;4.38;;;1.40;;
11439;SDS011;5776;51.814;4.510;2023-04-25T05:02:21;2.87;;;1.43;;
11439;SDS011;5776;51.814;4.510;2023-04-25T05:04:48;5.03;;;1.30;;
11439;SDS011;5776;51.814;4.510;2023-04-25T05:07:14;4.93;;;1.30;;
11439;SDS011;5776;51.814;4.510;2023-04-25T05:09:40;2.43;;;1.20;;
11439;SDS011;5776;51.814;4.510;2023-04-25T05:12:05;4.03;;;1.40;;
11439;SDS011;5776;51.814;4.510;2023-04-25T05:14:32;7.50;;;1.77;;
11439;SDS011;5776;51.814;4.510;2023-04-25T05:16:58;3.13;;;1.47;;
11439;SDS011;5776;51.814;4.510;2023-04-25T05:19:24;6.37;;;1.63;;
11439;SDS011;5776;51.814;4.510;2023-04-25T05:21:50;5.37;;;1.70;;
11439;SDS011;5776;51.814;4.510;2023-04-25T05:24:16;6.20;;;1.97;;
11439;SDS011;5776;51.814;4.510;2023-04-25T05:26:42;7.20;;;2.03;;
11439;SDS011;5776;51.814;4.510;2023-04-25T05:29:08;4.13;;;2.00;;
11439;SDS011;5776;51.814;4.510;2023-04-25T05:31:34;7.40;;;2.23;;
11439;SDS011;5776;51.814;4.510;2023-04-25T05:34:01;5.63;;;2.00;;
11439;SDS011;5776;51.814;4.510;2023-04-25T05:36:27;8.20;;;1.80;;
11439;SDS011;5776;51.814;4.510;2023-04-25T05:38:53;8.60;;;2.00;;
11439;SDS011;5776;51.814;4.510;2023-04-25T05:41:19;3.10;;;1.53;;
11439;SDS011;5776;51.814;4.510;2023-04-25T05:43:45;4.90;;;1.87;;
11439;SDS011;5776;51.814;4.510;2023-04-25T05:46:15;5.73;;;1.50;;
11439;SDS011;5776;51.814;4.510;2023-04-25T05:48:42;7.03;;;1.80;;
11439;SDS011;5776;51.814;4.510;2023-04-25T05:51:08;6.97;;;1.90;;
11439;SDS011;5776;51.814;4.510;2023-04-25T05:53:34;6.53;;;1.63;;
11439;SDS011;5776;51.814;4.510;2023-04-25T05:56:01;9.50;;;2.17;;
11439;SDS011;5776;51.814;4.510;2023-04-25T05:58:27;6.37;;;1.57;;
11439;SDS011;5776;51.814;4.510;2023-04-25T06:00:54;7.13;;;1.57;;
11439;SDS011;5776;51.814;4.510;2023-04-25T06:03:20;6.30;;;1.77;;
11439;SDS011;5776;51.814;4.510;2023-04-25T06:05:46;9.33;;;2.43;;
11439;SDS011;5776;51.814;4.510;2023-04-25T06:08:12;10.20;;;1.77;;
11439;SDS011;5776;51.814;4.510;2023-04-25T06:10:38;4.37;;;1.20;;
11439;SDS011;5776;51.814;4.510;2023-04-25T06:13:04;12.50;;;1.70;;
11439;SDS011;5776;51.814;4.510;2023-04-25T06:15:30;7.10;;;1.40;;
11439;SDS011;5776;51.814;4.510;2023-04-25T06:17:58;8.80;;;1.53;;
11439;SDS011;5776;51.814;4.510;2023-04-25T06:20:24;5.70;;;1.20;;
11439;SDS011;5776;51.814;4.510;2023-04-25T06:22:50;6.43;;;1.13;;
11439;SDS011;5776;51.814;4.510;2023-04-25T06:25:19;6.50;;;2.00;;
11439;SDS011;5776;51.814;4.510;2023-04-25T06:27:45;4.60;;;1.40;;
11439;SDS011;5776;51.814;4.510;2023-04-25T06:30:11;6.93;;;1.60;;
11439;SDS011;5776;51.814;4.510;2023-04-25T06:32:40;4.57;;;1.53;;
11439;SDS011;5776;51.814;4.510;2023-04-25T06:35:06;5.17;;;1.63;;
11439;SDS011;5776;51.814;4.510;2023-04-25T06:37:32;5.53;;;1.40;;
11439;SDS011;5776;51.814;4.510;2023-04-25T06:39:58;4.50;;;1.20;;
11439;SDS011;5776;51.814;4.510;2023-04-25T06:42:25;3.23;;;0.93;;
11439;SDS011;5776;51.814;4.510;2023-04-25T06:44:50;4.37;;;1.00;;
11439;SDS011;5776;51.814;4.510;2023-04-25T06:47:16;5.33;;;1.30;;
11439;SDS011;5776;51.814;4.510;2023-04-25T06:49:42;6.77;;;1.10;;
11439;SDS011;5776;51.814;4.510;2023-04-25T06:52:08;4.57;;;0.93;;
11439;SDS011;5776;51.814;4.510;2023-04-25T06:54:34;6.00;;;1.33;;
11439;SDS011;5776;51.814;4.510;2023-04-25T06:57:00;8.37;;;1.63;;
11439;SDS011;5776;51.814;4.510;2023-04-25T06:59:26;4.57;;;1.00;;
11439;SDS011;5776;51.814;4.510;2023-04-25T07:01:52;6.50;;;1.37;;
11439;SDS011;5776;51.814;4.510;2023-04-25T07:04:18;8.23;;;1.13;;
11439;SDS011;5776;51.814;4.510;2023-04-25T07:06:44;2.93;;;1.10;;
11439;SDS011;5776;51.814;4.510;2023-04-25T07:09:12;7.63;;;1.27;;
11439;SDS011;5776;51.814;4.510;2023-04-25T07:11:38;6.23;;;1.30;;
11439;SDS011;5776;51.814;4.510;2023-04-25T07:14:04;5.50;;;1.40;;
11439;SDS011;5776;51.814;4.510;2023-04-25T07:16:30;4.40;;;1.40;;
11439;SDS011;5776;51.814;4.510;2023-04-25T07:18:56;5.93;;;1.20;;
11439;SDS011;5776;51.814;4.510;2023-04-25T07:21:22;8.83;;;2.63;;
11439;SDS011;5776;51.814;4.510;2023-04-25T07:23:48;4.03;;;1.03;;
11439;SDS011;5776;51.814;4.510;2023-04-25T07:26:13;7.03;;;1.60;;
11439;SDS011;5776;51.814;4.510;2023-04-25T07:28:39;6.63;;;1.40;;
11439;SDS011;5776;51.814;4.510;2023-04-25T07:31:05;8.87;;;1.40;;
11439;SDS011;5776;51.814;4.510;2023-04-25T07:33:31;3.23;;;1.00;;
11439;SDS011;5776;51.814;4.510;2023-04-25T07:35:57;4.23;;;1.43;;
11439;SDS011;5776;51.814;4.510;2023-04-25T07:38:23;4.73;;;1.43;;
11439;SDS011;5776;51.814;4.510;2023-04-25T07:40:49;6.27;;;1.33;;
11439;SDS011;5776;51.814;4.510;2023-04-25T07:43:15;4.90;;;1.27;;
11439;SDS011;5776;51.814;4.510;2023-04-25T07:45:42;4.87;;;1.47;;
11439;SDS011;5776;51.814;4.510;2023-04-25T07:48:08;4.47;;;1.67;;
11439;SDS011;5776;51.814;4.510;2023-04-25T07:50:34;4.90;;;1.23;;
11439;SDS011;5776;51.814;4.510;2023-04-25T07:53:00;6.00;;;1.57;;
11439;SDS011;5776;51.814;4.510;2023-04-25T07:55:26;6.53;;;1.20;;
11439;SDS011;5776;51.814;4.510;2023-04-25T07:57:53;4.77;;;1.43;;
11439;SDS011;5776;51.814;4.510;2023-04-25T08:00:19;6.77;;;1.20;;
11439;SDS011;5776;51.814;4.510;2023-04-25T08:02:45;6.37;;;2.40;;
11439;SDS011;5776;51.814;4.510;2023-04-25T08:05:10;6.00;;;2.13;;
11439;SDS011;5776;51.814;4.510;2023-04-25T08:07:40;4.13;;;1.23;;
11439;SDS011;5776;51.814;4.510;2023-04-25T08:10:07;8.67;;;3.20;;
11439;SDS011;5776;51.814;4.510;2023-04-25T08:12:33;12.73;;;2.57;;
11439;SDS011;5776;51.814;4.510;2023-04-25T08:14:59;13.93;;;3.37;;
11439;SDS011;5776;51.814;4.510;2023-04-25T08:17:25;11.17;;;2.90;;
11439;SDS011;5776;51.814;4.510;2023-04-25T08:19:51;6.67;;;1.40;;
11439;SDS011;5776;51.814;4.510;2023-04-25T08:22:17;6.87;;;1.60;;
11439;SDS011;5776;51.814;4.510;2023-04-25T08:24:43;5.50;;;1.43;;
11439;SDS011;5776;51.814;4.510;2023-04-25T08:27:09;7.10;;;1.43;;
11439;SDS011;5776;51.814;4.510;2023-04-25T08:29:35;3.63;;;0.90;;
11439;SDS011;5776;51.814;4.510;2023-04-25T08:32:01;7.23;;;1.10;;
11439;SDS011;5776;51.814;4.510;2023-04-25T08:34:27;8.17;;;1.10;;
11439;SDS011;5776;51.814;4.510;2023-04-25T08:36:53;7.63;;;1.27;;
11439;SDS011;5776;51.814;4.510;2023-04-25T08:39:19;6.20;;;1.20;;
11439;SDS011;5776;51.814;4.510;2023-04-25T08:41:46;4.47;;;1.03;;
11439;SDS011;5776;51.814;4.510;2023-04-25T08:44:12;5.30;;;0.87;;
11439;SDS011;5776;51.814;4.510;2023-04-25T08:46:39;6.67;;;1.00;;
11439;SDS011;5776;51.814;4.510;2023-04-25T08:49:08;5.17;;;1.20;;
11439;SDS011;5776;51.814;4.510;2023-04-25T08:51:34;7.60;;;1.10;;
11439;SDS011;5776;51.814;4.510;2023-04-25T08:54:10;7.70;;;1.17;;
11439;SDS011;5776;51.814;4.510;2023-04-25T08:56:41;6.30;;;1.53;;
11439;SDS011;5776;51.814;4.510;2023-04-25T08:59:13;8.43;;;1.23;;
11439;SDS011;5776;51.814;4.510;2023-04-25T09:01:39;3.63;;;1.10;;
11439;SDS011;5776;51.814;4.510;2023-04-25T09:04:05;5.90;;;1.30;;
11439;SDS011;5776;51.814;4.510;2023-04-25T09:06:32;4.20;;;0.90;;
11439;SDS011;5776;51.814;4.510;2023-04-25T09:09:06;5.60;;;1.00;;
11439;SDS011;5776;51.814;4.510;2023-04-25T09:11:33;3.13;;;0.90;;
11439;SDS011;5776;51.814;4.510;2023-04-25T09:14:11;6.27;;;1.10;;
11439;SDS011;5776;51.814;4.510;2023-04-25T09:19:37;4.60;;;1.20;;
11439;SDS011;5776;51.814;4.510;2023-04-25T09:22:05;6.27;;;1.07;;
11439;SDS011;5776;51.814;4.510;2023-04-25T09:24:42;5.73;;;1.27;;
11439;SDS011;5776;51.814;4.510;2023-04-25T09:27:10;5.87;;;1.10;;
11439;SDS011;5776;51.814;4.510;2023-04-25T09:29:45;10.77;;;2.50;;
11439;SDS011;5776;51.814;4.510;2023-04-25T09:34:41;5.33;;;1.60;;
11439;SDS011;5776;51.814;4.510;2023-04-25T09:37:09;6.27;;;2.53;;
11439;SDS011;5776;51.814;4.510;2023-04-25T09:39:37;9.10;;;2.80;;
11439;SDS011;5776;51.814;4.510;2023-04-25T09:42:04;15.80;;;4.03;;
11439;SDS011;5776;51.814;4.510;2023-04-25T09:44:30;5.83;;;2.00;;
11439;SDS011;5776;51.814;4.510;2023-04-25T09:46:57;10.23;;;2.50;;
11439;SDS011;5776;51.814;4.510;2023-04-25T09:49:24;7.20;;;2.17;;
11439;SDS011;5776;51.814;4.510;2023-04-25T09:51:56;11.60;;;4.07;;
11439;SDS011;5776;51.814;4.510;2023-04-25T09:54:26;6.20;;;2.20;;
11439;SDS011;5776;51.814;4.510;2023-04-25T09:56:52;7.50;;;1.33;;
11439;SDS011;5776;51.814;4.510;2023-04-25T09:59:19;5.77;;;1.20;;
11439;SDS011;5776;51.814;4.510;2023-04-25T10:01:47;7.67;;;1.07;;
11439;SDS011;5776;51.814;4.510;2023-04-25T10:04:19;7.07;;;1.27;;
11439;SDS011;5776;51.814;4.510;2023-04-25T10:06:48;7.10;;;0.90;;
11439;SDS011;5776;51.814;4.510;2023-04-25T10:09:16;4.67;;;1.03;;
11439;SDS011;5776;51.814;4.510;2023-04-25T10:11:47;3.10;;;0.80;;
11439;SDS011;5776;51.814;4.510;2023-04-25T10:14:16;4.93;;;1.10;;
11439;SDS011;5776;51.814;4.510;2023-04-25T10:16:42;4.13;;;1.10;;
11439;SDS011;5776;51.814;4.510;2023-04-25T10:19:12;3.87;;;0.80;;
11439;SDS011;5776;51.814;4.510;2023-04-25T10:21:40;3.00;;;0.90;;
11439;SDS011;5776;51.814;4.510;2023-04-25T10:24:14;3.00;;;0.80;;
11439;SDS011;5776;51.814;4.510;2023-04-25T10:26:40;4.77;;;1.40;;
11439;SDS011;5776;51.814;4.510;2023-04-25T10:29:07;6.90;;;1.23;;
11439;SDS011;5776;51.814;4.510;2023-04-25T10:31:37;5.43;;;1.20;;
11439;SDS011;5776;51.814;4.510;2023-04-25T10:34:11;4.17;;;1.23;;
11439;SDS011;5776;51.814;4.510;2023-04-25T10:36:36;8.37;;;1.37;;
11439;SDS011;5776;51.814;4.510;2023-04-25T10:39:04;4.47;;;1.20;;
11439;SDS011;5776;51.814;4.510;2023-04-25T10:41:46;8.37;;;1.30;;
11439;SDS011;5776;51.814;4.510;2023-04-25T10:44:16;4.47;;;1.00;;
11439;SDS011;5776;51.814;4.510;2023-04-25T10:46:42;6.50;;;1.43;;
11439;SDS011;5776;51.814;4.510;2023-04-25T10:49:11;8.37;;;1.60;;
11439;SDS011;5776;51.814;4.510;2023-04-25T10:54:55;7.80;;;1.23;;
11439;SDS011;5776;51.814;4.510;2023-04-25T10:57:38;11.83;;;1.20;;
11439;SDS011;5776;51.814;4.510;2023-04-25T11:02:47;2.97;;;0.90;;
11439;SDS011;5776;51.814;4.510;2023-04-25T11:05:30;4.43;;;1.20;;
11439;SDS011;5776;51.814;4.510;2023-04-25T11:07:58;3.20;;;0.83;;
11439;SDS011;5776;51.814;4.510;2023-04-25T11:10:29;8.40;;;0.97;;
11439;SDS011;5776;51.814;4.510;2023-04-25T11:12:57;4.97;;;1.23;;
11439;SDS011;5776;51.814;4.510;2023-04-25T11:15:23;11.20;;;1.60;;
11439;SDS011;5776;51.814;4.510;2023-04-25T11:17:51;6.43;;;1.73;;
11439;SDS011;5776;51.814;4.510;2023-04-25T11:20:17;4.77;;;0.90;;
11439;SDS011;5776;51.814;4.510;2023-04-25T11:22:44;7.63;;;1.63;;
11439;SDS011;5776;51.814;4.510;2023-04-25T11:25:12;2.63;;;0.83;;
11439;SDS011;5776;51.814;4.510;2023-04-25T11:27:49;5.80;;;1.20;;
11439;SDS011;5776;51.814;4.510;2023-04-25T11:30:23;5.60;;;0.80;;
11439;SDS011;5776;51.814;4.510;2023-04-25T11:32:50;4.43;;;0.80;;
11439;SDS011;5776;51.814;4.510;2023-04-25T11:35:18;4.13;;;1.17;;
11439;SDS011;5776;51.814;4.510;2023-04-25T11:37:44;5.87;;;1.20;;
11439;SDS011;5776;51.814;4.510;2023-04-25T11:40:11;8.63;;;1.33;;
11439;SDS011;5776;51.814;4.510;2023-04-25T11:42:37;6.10;;;1.00;;
11439;SDS011;5776;51.814;4.510;2023-04-25T11:45:05;6.93;;;1.37;;
11439;SDS011;5776;51.814;4.510;2023-04-25T11:47:32;6.67;;;1.23;;
11439;SDS011;5776;51.814;4.510;2023-04-25T11:49:59;7.57;;;1.10;;
11439;SDS011;5776;51.814;4.510;2023-04-25T11:52:39;2.47;;;0.97;;
11439;SDS011;5776;51.814;4.510;2023-04-25T11:55:10;5.87;;;1.10;;
11439;SDS011;5776;51.814;4.510;2023-04-25T11:57:39;6.37;;;1.40;;
11439;SDS011;5776;51.814;4.510;2023-04-25T12:00:14;4.57;;;0.90;;
11439;SDS011;5776;51.814;4.510;2023-04-25T12:02:46;3.70;;;0.70;;
11439;SDS011;5776;51.814;4.510;2023-04-25T12:05:16;5.07;;;0.90;;
11439;SDS011;5776;51.814;4.510;2023-04-25T12:07:42;5.83;;;1.17;;
11439;SDS011;5776;51.814;4.510;2023-04-25T12:10:09;6.03;;;1.17;;
11439;SDS011;5776;51.814;4.510;2023-04-25T12:12:37;12.50;;;1.87;;
11439;SDS011;5776;51.814;4.510;2023-04-25T12:15:10;3.63;;;0.87;;
11439;SDS011;5776;51.814;4.510;2023-04-25T12:17:45;5.43;;;1.10;;
11439;SDS011;5776;51.814;4.510;2023-04-25T12:20:13;5.47;;;0.77;;
11439;SDS011;5776;51.814;4.510;2023-04-25T12:22:47;4.03;;;1.00;;
11439;SDS011;5776;51.814;4.510;2023-04-25T12:25:17;3.37;;;0.80;;
11439;SDS011;5776;51.814;4.510;2023-04-25T12:30:51;6.67;;;1.00;;
11439;SDS011;5776;51.814;4.510;2023-04-25T12:33:22;6.13;;;1.20;;
11439;SDS011;5776;51.814;4.510;2023-04-25T12:35:48;3.93;;;1.10;;
11439;SDS011;5776;51.814;4.510;2023-04-25T12:38:23;4.20;;;1.00;;
11439;SDS011;5776;51.814;4.510;2023-04-25T12:40:49;4.80;;;0.90;;
11439;SDS011;5776;51.814;4.510;2023-04-25T12:43:15;5.90;;;1.30;;
11439;SDS011;5776;51.814;4.510;2023-04-25T12:45:41;4.13;;;1.10;;
11439;SDS011;5776;51.814;4.510;2023-04-25T12:48:07;3.07;;;1.17;;
11439;SDS011;5776;51.814;4.510;2023-04-25T12:50:33;3.57;;;1.00;;
11439;SDS011;5776;51.814;4.510;2023-04-25T12:52:59;3.20;;;1.00;;
11439;SDS011;5776;51.814;4.510;2023-04-25T12:55:25;6.30;;;1.60;;
11439;SDS011;5776;51.814;4.510;2023-04-25T12:57:51;5.03;;;1.33;;
11439;SDS011;5776;51.814;4.510;2023-04-25T13:00:17;6.27;;;1.53;;
11439;SDS011;5776;51.814;4.510;2023-04-25T13:02:45;4.43;;;1.30;;
11439;SDS011;5776;51.814;4.510;2023-04-25T13:05:12;5.43;;;1.23;;
11439;SDS011;5776;51.814;4.510;2023-04-25T13:07:38;4.57;;;1.10;;
11439;SDS011;5776;51.814;4.510;2023-04-25T13:10:04;3.77;;;1.10;;
11439;SDS011;5776;51.814;4.510;2023-04-25T13:12:31;3.77;;;1.00;;
11439;SDS011;5776;51.814;4.510;2023-04-25T13:14:57;4.80;;;1.37;;
11439;SDS011;5776;51.814;4.510;2023-04-25T13:17:23;5.60;;;1.10;;
11439;SDS011;5776;51.814;4.510;2023-04-25T13:19:49;5.73;;;1.40;;
11439;SDS011;5776;51.814;4.510;2023-04-25T13:22:14;4.60;;;1.30;;
11439;SDS011;5776;51.814;4.510;2023-04-25T13:24:42;2.80;;;1.00;;
11439;SDS011;5776;51.814;4.510;2023-04-25T13:27:08;3.63;;;1.23;;
11439;SDS011;5776;51.814;4.510;2023-04-25T13:29:34;6.30;;;1.40;;
11439;SDS011;5776;51.814;4.510;2023-04-25T13:32:01;8.80;;;1.30;;
11439;SDS011;5776;51.814;4.510;2023-04-25T13:34:27;4.17;;;1.10;;
11439;SDS011;5776;51.814;4.510;2023-04-25T13:36:54;3.13;;;1.07;;
11439;SDS011;5776;51.814;4.510;2023-04-25T13:39:20;5.43;;;0.90;;
11439;SDS011;5776;51.814;4.510;2023-04-25T13:41:46;3.90;;;1.27;;
11439;SDS011;5776;51.814;4.510;2023-04-25T13:44:12;5.10;;;1.13;;
11439;SDS011;5776;51.814;4.510;2023-04-25T13:46:38;2.67;;;1.00;;
11439;SDS011;5776;51.814;4.510;2023-04-25T13:49:05;4.10;;;1.27;;
11439;SDS011;5776;51.814;4.510;2023-04-25T13:51:31;6.10;;;1.33;;
11439;SDS011;5776;51.814;4.510;2023-04-25T13:53:57;6.03;;;1.07;;
11439;SDS011;5776;51.814;4.510;2023-04-25T13:56:22;4.00;;;0.90;;
11439;SDS011;5776;51.814;4.510;2023-04-25T13:58:52;4.10;;;1.07;;
11439;SDS011;5776;51.814;4.510;2023-04-25T14:01:18;3.63;;;1.20;;
11439;SDS011;5776;51.814;4.510;2023-04-25T14:03:45;7.23;;;1.20;;
11439;SDS011;5776;51.814;4.510;2023-04-25T14:06:11;5.23;;;1.13;;
11439;SDS011;5776;51.814;4.510;2023-04-25T14:08:38;7.13;;;1.30;;
11439;SDS011;5776;51.814;4.510;2023-04-25T14:11:04;2.40;;;0.97;;
11439;SDS011;5776;51.814;4.510;2023-04-25T14:13:30;3.50;;;1.20;;
11439;SDS011;5776;51.814;4.510;2023-04-25T14:15:56;5.23;;;1.00;;
11439;SDS011;5776;51.814;4.510;2023-04-25T14:18:23;5.20;;;1.50;;
11439;SDS011;5776;51.814;4.510;2023-04-25T14:20:48;3.67;;;1.07;;
11439;SDS011;5776;51.814;4.510;2023-04-25T14:23:15;6.10;;;1.00;;
11439;SDS011;5776;51.814;4.510;2023-04-25T14:25:41;3.97;;;1.30;;
11439;SDS011;5776;51.814;4.510;2023-04-25T14:28:09;9.23;;;1.23;;
11439;SDS011;5776;51.814;4.510;2023-04-25T14:30:34;10.13;;;1.53;;
11439;SDS011;5776;51.814;4.510;2023-04-25T14:33:00;4.13;;;1.10;;
11439;SDS011;5776;51.814;4.510;2023-04-25T14:35:26;7.20;;;1.30;;
11439;SDS011;5776;51.814;4.510;2023-04-25T14:37:52;4.83;;;0.93;;
11439;SDS011;5776;51.814;4.510;2023-04-25T14:40:18;6.83;;;1.53;;
11439;SDS011;5776;51.814;4.510;2023-04-25T14:42:48;6.00;;;1.03;;
11439;SDS011;5776;51.814;4.510;2023-04-25T14:45:15;8.27;;;1.40;;
11439;SDS011;5776;51.814;4.510;2023-04-25T14:47:41;7.10;;;1.27;;
11439;SDS011;5776;51.814;4.510;2023-04-25T14:50:07;4.20;;;1.17;;
11439;SDS011;5776;51.814;4.510;2023-04-25T14:52:34;4.80;;;1.17;;
11439;SDS011;5776;51.814;4.510;2023-04-25T14:55:00;5.23;;;1.20;;
11439;SDS011;5776;51.814;4.510;2023-04-25T14:57:31;4.13;;;1.00;;
11439;SDS011;5776;51.814;4.510;2023-04-25T14:59:57;8.17;;;1.60;;
11439;SDS011;5776;51.814;4.510;2023-04-25T15:02:26;3.47;;;0.90;;
11439;SDS011;5776;51.814;4.510;2023-04-25T15:04:53;2.93;;;1.07;;
11439;SDS011;5776;51.814;4.510;2023-04-25T15:07:19;3.67;;;1.10;;
11439;SDS011;5776;51.814;4.510;2023-04-25T15:09:45;4.63;;;1.00;;
11439;SDS011;5776;51.814;4.510;2023-04-25T15:12:11;2.83;;;0.90;;